createdAt,value
2023-02-11T00:01:36.778Z,83.54
2023-02-11T00:04:06.604Z,82.71
2023-02-11T00:06:35.469Z,82.81
2023-02-11T00:09:02.928Z,83.32
2023-02-11T00:11:31.184Z,82.31
2023-02-11T00:14:06.914Z,82.56
2023-02-11T00:16:44.244Z,83.37
2023-02-11T00:19:11.260Z,82.82
2023-02-11T00:21:38.278Z,83.45
2023-02-11T00:24:05.932Z,83.69
2023-02-11T00:26:40.272Z,83.42
2023-02-11T00:29:07.425Z,83.56
2023-02-11T00:31:35.139Z,83.50
2023-02-11T00:34:02.910Z,83.23
2023-02-11T00:36:31.135Z,82.48
2023-02-11T00:38:59.232Z,83.61
2023-02-11T00:41:26.794Z,83.80
2023-02-11T00:43:54.287Z,83.60
2023-02-11T00:46:22.262Z,83.32
2023-02-11T00:48:52.446Z,82.80
2023-02-11T00:51:23.629Z,82.70
2023-02-11T00:53:52.015Z,83.55
2023-02-11T00:56:19.244Z,83.03
2023-02-11T00:58:46.579Z,83.30
2023-02-11T01:01:22.555Z,82.59
2023-02-11T01:03:51.322Z,82.96
2023-02-11T01:06:18.807Z,82.81
2023-02-11T01:08:46.000Z,82.08
2023-02-11T01:11:20.131Z,82.76
2023-02-11T01:13:50.075Z,82.50
2023-02-11T01:16:20.483Z,82.25
2023-02-11T01:18:50.902Z,82.61
2023-02-11T01:21:21.802Z,82.99
2023-02-11T01:23:51.790Z,82.82
2023-02-11T01:26:20.419Z,82.55
2023-02-11T01:28:49.203Z,82.07
2023-02-11T01:31:17.233Z,83.17
2023-02-11T01:33:52.077Z,83.37
2023-02-11T01:36:31.821Z,82.57
2023-02-11T01:39:13.120Z,83.74
2023-02-11T01:41:47.593Z,82.98
2023-02-11T01:44:34.913Z,83.30
2023-02-11T01:47:05.306Z,84.00
2023-02-11T01:49:44.586Z,82.69
2023-02-11T01:52:24.339Z,84.37
2023-02-11T01:55:14.398Z,84.20
2023-02-11T01:57:46.545Z,82.63
2023-02-11T02:00:56.536Z,82.60
2023-02-11T02:03:30.173Z,83.79
2023-02-11T02:06:14.724Z,83.13
2023-02-11T02:09:06.916Z,82.98
2023-02-11T02:11:37.394Z,82.21
2023-02-11T02:14:04.891Z,82.93
2023-02-11T02:16:35.169Z,83.73
2023-02-11T02:19:05.324Z,82.57
2023-02-11T02:21:50.798Z,82.49
2023-02-11T02:24:44.348Z,81.94
2023-02-11T02:27:42.809Z,81.69
2023-02-11T02:30:29.766Z,81.68
2023-02-11T02:33:24.861Z,80.43
2023-02-11T02:36:10.825Z,80.74
2023-02-11T02:39:07.253Z,80.48
2023-02-11T02:41:37.303Z,80.02
2023-02-11T02:44:05.002Z,80.87
2023-02-11T02:46:34.098Z,80.20
2023-02-11T02:49:01.694Z,80.15
2023-02-11T02:51:41.846Z,79.59
2023-02-11T02:54:37.434Z,80.18
2023-02-11T02:57:12.787Z,79.85
2023-02-11T03:00:04.473Z,80.04
2023-02-11T03:02:39.637Z,79.46
2023-02-11T03:05:08.769Z,79.78
2023-02-11T03:07:54.268Z,79.84
2023-02-11T03:10:30.227Z,80.03
2023-02-11T03:12:58.238Z,79.32
2023-02-11T03:15:28.275Z,78.78
2023-02-11T03:18:01.280Z,78.90
2023-02-11T03:20:37.837Z,78.67
2023-02-11T03:23:29.918Z,77.44
2023-02-11T03:26:02.726Z,77.92
2023-02-11T03:28:40.193Z,77.74
2023-02-11T03:31:33.377Z,78.25
2023-02-11T03:34:24.364Z,77.57
2023-02-11T03:37:09.817Z,77.28
2023-02-11T03:39:52.138Z,78.26
2023-02-11T03:42:36.412Z,76.81
2023-02-11T03:45:11.232Z,77.26
2023-02-11T03:47:56.738Z,76.55
2023-02-11T03:50:31.453Z,77.14
2023-02-11T03:53:02.154Z,78.20
2023-02-11T03:55:31.685Z,77.27
2023-02-11T04:01:21.990Z,77.21
2023-02-11T04:03:50.749Z,76.76
2023-02-11T04:06:24.365Z,77.15
2023-02-11T04:08:52.998Z,76.97
2023-02-11T04:11:31.377Z,77.33
2023-02-11T04:14:17.087Z,77.57
2023-02-11T04:16:44.458Z,77.66
2023-02-11T04:19:11.415Z,78.14
2023-02-11T04:21:38.617Z,77.58
2023-02-11T04:24:05.914Z,79.03
2023-02-11T04:26:33.543Z,78.19
2023-02-11T04:29:00.744Z,78.52
2023-02-11T04:31:27.761Z,79.17
2023-02-11T04:33:54.851Z,78.54
2023-02-11T04:36:21.973Z,78.54
2023-02-11T04:38:48.981Z,78.17
2023-02-11T04:41:16.288Z,79.08
2023-02-11T04:43:43.500Z,79.26
2023-02-11T04:46:10.656Z,78.38
2023-02-11T04:48:37.623Z,79.11
2023-02-11T04:51:04.744Z,79.29
2023-02-11T04:53:33.850Z,79.59
2023-02-11T04:56:01.017Z,79.68
2023-02-11T04:58:28.120Z,80.87
2023-02-11T05:01:12.609Z,80.40
2023-02-11T05:03:39.889Z,81.01
2023-02-11T05:06:07.308Z,80.75
2023-02-11T05:08:35.808Z,81.38
2023-02-11T05:11:03.048Z,80.83
2023-02-11T05:13:30.924Z,82.03
2023-02-11T05:15:58.399Z,80.94
2023-02-11T05:18:25.411Z,81.91
2023-02-11T05:20:52.434Z,81.86
2023-02-11T05:23:19.516Z,82.04
2023-02-11T05:25:46.518Z,82.63
2023-02-11T05:28:13.828Z,83.29
2023-02-11T05:30:40.958Z,82.87
2023-02-11T05:33:08.411Z,82.50
2023-02-11T05:35:35.647Z,83.42
2023-02-11T05:38:02.728Z,82.14
2023-02-11T05:40:29.864Z,83.89
2023-02-11T05:42:57.072Z,83.28
2023-02-11T05:45:24.346Z,82.55
2023-02-11T05:47:51.335Z,83.96
2023-02-11T05:50:18.545Z,82.34
2023-02-11T05:52:45.603Z,83.74
2023-02-11T05:55:12.963Z,82.73
2023-02-11T05:57:40.009Z,82.51
2023-02-11T06:00:07.440Z,83.18
2023-02-11T06:02:40.293Z,82.02
2023-02-11T06:05:07.958Z,82.91
2023-02-11T06:07:34.854Z,82.94
2023-02-11T06:10:02.191Z,82.50
2023-02-11T06:12:30.326Z,82.08
2023-02-11T06:14:57.330Z,82.74
2023-02-11T06:17:25.441Z,82.97
2023-02-11T06:19:52.393Z,82.45
2023-02-11T06:22:19.388Z,82.12
2023-02-11T06:25:00.793Z,82.23
2023-02-11T06:27:30.679Z,82.03
2023-02-11T06:29:57.760Z,83.51
2023-02-11T06:32:42.649Z,83.39
2023-02-11T06:35:12.365Z,82.07
2023-02-11T06:37:40.270Z,81.71
2023-02-11T06:40:07.541Z,82.03
2023-02-11T06:42:36.378Z,81.10
2023-02-11T06:45:06.211Z,81.27
2023-02-11T06:47:33.583Z,81.80
2023-02-11T06:50:00.677Z,81.11
2023-02-11T06:52:27.702Z,81.05
2023-02-11T06:54:54.664Z,80.72
2023-02-11T06:57:21.829Z,79.56
2023-02-11T06:59:48.910Z,79.48
2023-02-11T07:02:17.982Z,78.77
2023-02-11T07:04:46.371Z,77.25
2023-02-11T07:07:13.319Z,76.51
2023-02-11T07:09:40.484Z,75.67
2023-02-11T07:12:10.460Z,75.42
2023-02-11T07:14:37.913Z,74.83
2023-02-11T07:17:05.348Z,74.14
2023-02-11T07:19:32.492Z,74.77
2023-02-11T07:21:59.490Z,74.10
2023-02-11T07:24:26.657Z,72.49
2023-02-11T07:26:54.316Z,71.43
2023-02-11T07:29:21.490Z,71.01
2023-02-11T07:31:48.962Z,70.25
2023-02-11T07:34:16.009Z,69.23
2023-02-11T07:36:46.109Z,69.67
2023-02-11T07:39:13.819Z,70.92
2023-02-11T07:41:40.908Z,71.52
2023-02-11T07:44:08.136Z,72.37
2023-02-11T07:46:35.967Z,73.58
2023-02-11T07:49:03.140Z,73.40
2023-02-11T07:51:31.688Z,72.94
2023-02-11T07:54:00.286Z,72.85
2023-02-11T07:56:28.804Z,72.28
2023-02-11T07:58:57.086Z,71.09
2023-02-11T08:01:28.504Z,69.82
2023-02-11T08:03:57.291Z,69.02
2023-02-11T08:06:26.898Z,68.62
2023-02-11T08:08:54.055Z,66.97
2023-02-11T08:11:24.012Z,65.79
2023-02-11T08:13:52.121Z,66.39
2023-02-11T08:16:46.952Z,67.18
2023-02-11T08:19:16.256Z,68.75
2023-02-11T08:21:44.109Z,69.18
2023-02-11T08:24:11.610Z,70.41
2023-02-11T08:26:38.923Z,70.87
2023-02-11T08:29:09.761Z,70.23
2023-02-11T08:31:40.138Z,69.55
2023-02-11T08:34:07.470Z,70.27
2023-02-11T08:36:39.854Z,71.05
2023-02-11T08:39:19.267Z,71.74
2023-02-11T08:41:53.118Z,71.82
2023-02-11T08:44:21.641Z,72.18
2023-02-11T08:46:49.697Z,73.85
2023-02-11T08:49:17.048Z,73.63
2023-02-11T08:51:44.685Z,74.00
2023-02-11T08:54:11.936Z,74.50
2023-02-11T08:56:39.179Z,74.92
2023-02-11T08:59:07.338Z,76.32
2023-02-11T09:01:34.496Z,76.24
2023-02-11T09:04:01.810Z,77.59
2023-02-11T09:06:29.458Z,78.17
2023-02-11T09:08:57.849Z,78.29
2023-02-11T09:11:34.281Z,79.41
2023-02-11T09:14:02.255Z,80.02
2023-02-11T09:16:31.928Z,79.09
2023-02-11T09:19:00.613Z,78.75
2023-02-11T09:21:28.515Z,79.34
2023-02-11T09:23:56.125Z,79.38
2023-02-11T09:26:28.665Z,80.30
2023-02-11T09:28:56.004Z,81.64
2023-02-11T09:31:25.339Z,81.07
2023-02-11T09:33:55.777Z,82.02
2023-02-11T09:36:25.660Z,80.82
2023-02-11T09:38:53.753Z,81.26
2023-02-11T09:41:23.702Z,81.95
2023-02-11T09:43:57.584Z,82.05
2023-02-11T09:46:27.675Z,80.90
2023-02-11T09:48:56.451Z,81.54
2023-02-11T09:51:39.996Z,82.12
2023-02-11T09:54:26.239Z,81.96
2023-02-11T09:56:53.241Z,81.99
2023-02-11T09:59:20.505Z,83.48
2023-02-11T10:01:53.780Z,82.50
2023-02-11T10:04:33.054Z,83.09
2023-02-11T10:07:31.545Z,82.72
2023-02-11T10:10:16.881Z,82.39
2023-02-11T10:12:46.650Z,83.72
2023-02-11T10:15:42.738Z,83.61
2023-02-11T10:18:30.656Z,83.30
2023-02-11T10:21:17.695Z,81.60
2023-02-11T10:23:48.921Z,81.95
2023-02-11T10:26:18.385Z,82.36
2023-02-11T10:28:52.349Z,80.95
2023-02-11T10:31:40.477Z,82.11
2023-02-11T10:34:13.114Z,80.69
2023-02-11T10:36:43.070Z,79.94
2023-02-11T10:39:23.208Z,80.29
2023-02-11T10:42:07.838Z,79.25
2023-02-11T10:44:41.751Z,79.49
2023-02-11T10:47:22.580Z,79.30
2023-02-11T10:49:50.150Z,79.23
2023-02-11T10:52:26.586Z,78.61
2023-02-11T10:55:10.291Z,78.87
2023-02-11T10:58:08.730Z,78.09
2023-02-11T11:00:41.011Z,78.37
2023-02-11T11:03:23.225Z,78.21
2023-02-11T11:05:53.360Z,78.36
2023-02-11T11:08:21.062Z,77.18
2023-02-11T11:11:08.022Z,76.64
2023-02-11T11:13:40.624Z,76.61
2023-02-11T11:16:13.717Z,76.57
2023-02-11T11:18:43.933Z,76.43
2023-02-11T11:21:29.016Z,75.45
2023-02-11T11:23:58.883Z,75.65
2023-02-11T11:26:49.109Z,75.47
2023-02-11T11:29:34.839Z,74.84
2023-02-11T11:32:24.162Z,74.97
2023-02-11T11:35:02.779Z,75.13
2023-02-11T11:37:33.524Z,74.88
2023-02-11T11:40:15.819Z,75.30
2023-02-11T11:42:43.336Z,74.85
2023-02-11T11:45:16.341Z,74.46
2023-02-11T11:48:14.531Z,73.66
2023-02-11T11:50:52.560Z,74.13
2023-02-11T11:53:37.762Z,73.01
2023-02-11T11:56:11.656Z,72.47
2023-02-11T11:58:38.994Z,71.27
2023-02-11T12:01:38.406Z,71.21
2023-02-11T12:04:20.667Z,70.82
2023-02-11T12:06:56.988Z,71.05
2023-02-11T12:09:30.100Z,70.67
2023-02-11T12:12:15.732Z,71.14
2023-02-11T12:15:01.041Z,70.80
2023-02-11T12:18:08.867Z,71.07
2023-02-11T12:21:13.635Z,71.50
2023-02-11T12:24:00.429Z,71.20
2023-02-11T12:26:46.236Z,70.92
2023-02-11T12:29:25.747Z,71.14
2023-02-11T12:32:11.584Z,71.53
2023-02-11T12:34:40.810Z,71.43
2023-02-11T12:37:08.178Z,72.50
2023-02-11T12:39:51.131Z,72.12
2023-02-11T12:42:57.586Z,72.13
2023-02-11T12:45:46.565Z,72.42
2023-02-11T12:48:38.648Z,73.57
2023-02-11T12:51:24.564Z,73.29
2023-02-11T12:54:33.011Z,72.74
2023-02-11T12:57:22.185Z,73.20
2023-02-11T13:00:13.312Z,74.23
2023-02-11T13:03:06.390Z,74.17
2023-02-11T13:05:52.378Z,74.96
2023-02-11T13:08:33.811Z,75.53
2023-02-11T13:11:22.102Z,75.16
2023-02-11T13:13:59.207Z,76.34
2023-02-11T13:16:41.109Z,75.93
2023-02-11T13:19:39.086Z,75.78
2023-02-11T13:22:21.264Z,75.93
2023-02-11T13:25:07.856Z,76.13
2023-02-11T13:27:59.147Z,76.10
2023-02-11T13:30:33.535Z,75.92
2023-02-11T13:33:03.534Z,76.88
2023-02-11T13:35:32.534Z,76.55
2023-02-11T13:38:01.509Z,76.81
2023-02-11T13:40:39.889Z,77.27
2023-02-11T13:46:30.720Z,77.95
2023-02-11T13:48:58.387Z,77.84
2023-02-11T13:51:35.588Z,78.44
2023-02-11T13:54:04.239Z,79.47
2023-02-11T13:56:36.233Z,79.43
2023-02-11T13:59:06.268Z,80.09
2023-02-11T14:02:14.274Z,80.91
2023-02-11T14:05:21.690Z,79.94
2023-02-11T14:08:28.512Z,79.81
2023-02-11T14:11:08.523Z,80.21
2023-02-11T14:13:47.777Z,80.70
2023-02-11T14:16:22.566Z,79.97
2023-02-11T14:18:55.615Z,80.21
2023-02-11T14:21:32.426Z,81.42
2023-02-11T14:24:02.210Z,81.66
2023-02-11T14:26:44.301Z,81.32
2023-02-11T14:29:33.712Z,82.81
2023-02-11T14:32:25.464Z,81.92
2023-02-11T14:35:07.654Z,82.98
2023-02-11T14:37:56.246Z,83.32
2023-02-11T14:40:32.191Z,83.47
2023-02-11T14:43:17.444Z,84.63
2023-02-11T14:45:50.388Z,85.81
2023-02-11T14:48:20.000Z,85.99
2023-02-11T14:50:52.242Z,85.86
2023-02-11T14:53:24.022Z,86.07
2023-02-11T14:55:53.968Z,85.33
2023-02-11T14:58:23.950Z,86.27
2023-02-11T15:00:57.787Z,85.91
2023-02-11T15:03:34.326Z,85.68
2023-02-11T15:06:20.937Z,85.60
2023-02-11T15:09:16.993Z,85.86
2023-02-11T15:11:48.526Z,85.88
2023-02-11T15:14:24.413Z,85.38
2023-02-11T15:16:54.244Z,85.35
2023-02-11T15:19:37.091Z,84.22
2023-02-11T15:22:20.405Z,83.71
2023-02-11T15:25:10.550Z,84.17
2023-02-11T15:27:49.586Z,84.66
2023-02-11T15:30:22.862Z,84.85
2023-02-11T15:32:50.988Z,85.30
2023-02-11T15:35:20.728Z,84.03
2023-02-11T15:37:50.573Z,84.34
2023-02-11T15:40:25.495Z,84.51
2023-02-11T15:42:58.639Z,84.84
2023-02-11T15:45:38.023Z,84.96
2023-02-11T15:48:20.390Z,85.48
2023-02-11T15:50:53.871Z,85.14
2023-02-11T15:53:37.352Z,86.83
2023-02-11T15:56:26.805Z,86.57
2023-02-11T15:58:56.175Z,86.83
2023-02-11T16:01:49.761Z,88.50
2023-02-11T16:04:20.474Z,88.31
2023-02-11T16:06:48.485Z,88.92
2023-02-11T16:09:15.456Z,90.09
2023-02-11T16:11:48.871Z,89.49
2023-02-11T16:14:31.840Z,90.30
2023-02-11T16:17:42.859Z,90.88
2023-02-11T16:20:21.428Z,90.74
2023-02-11T16:22:48.672Z,90.54
2023-02-11T16:25:20.972Z,91.89
2023-02-11T16:27:51.970Z,92.75
2023-02-11T16:30:36.576Z,92.75
2023-02-11T16:33:06.615Z,92.79
2023-02-11T16:35:34.772Z,93.94
2023-02-11T16:38:01.934Z,93.40
2023-02-11T16:40:33.405Z,94.45
2023-02-11T16:43:11.222Z,97.00
2023-02-11T16:45:51.284Z,96.62
2023-02-11T16:48:27.015Z,96.82
2023-02-11T16:51:29.734Z,95.40
2023-02-11T16:54:15.372Z,95.27
2023-02-11T16:57:09.421Z,95.14
2023-02-11T16:59:56.356Z,95.27
2023-02-11T17:02:36.142Z,96.31
2023-02-11T17:05:08.056Z,95.88
2023-02-11T17:07:35.724Z,97.08
2023-02-11T17:10:02.849Z,96.54
2023-02-11T17:12:30.825Z,96.77
2023-02-11T17:14:57.881Z,96.23
2023-02-11T17:17:24.864Z,97.48
2023-02-11T17:19:52.033Z,96.58
2023-02-11T17:22:19.170Z,96.59
2023-02-11T17:24:46.281Z,97.30
2023-02-11T17:27:13.542Z,97.14
2023-02-11T17:29:40.854Z,96.50
2023-02-11T17:32:08.049Z,96.44
2023-02-11T17:34:35.253Z,96.90
2023-02-11T17:37:09.082Z,96.85
2023-02-11T17:39:40.249Z,97.24
2023-02-11T17:42:08.884Z,97.36
2023-02-11T17:44:36.004Z,96.94
2023-02-11T17:47:03.671Z,97.08
2023-02-11T17:49:30.684Z,97.19
2023-02-11T17:51:58.048Z,96.84
2023-02-11T17:54:25.210Z,97.96
2023-02-11T17:56:55.800Z,100.00
2023-02-11T17:59:26.074Z,100.00
2023-02-11T18:01:53.264Z,100.00
2023-02-11T18:04:20.780Z,100.00
2023-02-11T18:06:48.724Z,100.00
2023-02-11T18:09:15.799Z,98.90
2023-02-11T18:11:43.029Z,98.78
2023-02-11T18:14:10.596Z,99.21
2023-02-11T18:16:40.079Z,99.00
2023-02-11T18:19:07.856Z,98.61
2023-02-11T18:21:35.409Z,98.61
2023-02-11T18:24:06.432Z,98.80
2023-02-11T18:26:34.990Z,98.90
2023-02-11T18:29:06.397Z,99.23
2023-02-11T18:31:35.541Z,98.82
2023-02-11T18:34:05.720Z,98.43
2023-02-11T18:36:35.555Z,98.98
2023-02-11T18:39:05.200Z,98.57
2023-02-11T18:41:32.526Z,99.45
2023-02-11T18:44:03.048Z,98.95
2023-02-11T18:46:31.526Z,99.10
2023-02-11T18:48:58.948Z,99.59
2023-02-11T18:51:26.615Z,100.00
2023-02-11T18:53:59.594Z,100.00
2023-02-11T18:56:30.065Z,99.26
2023-02-11T18:58:58.817Z,99.41
2023-02-11T19:01:27.638Z,98.95
2023-02-11T19:04:00.677Z,98.50
2023-02-11T19:06:30.235Z,98.67
2023-02-11T19:09:00.244Z,98.36
2023-02-11T19:11:49.181Z,98.66
2023-02-11T19:14:22.369Z,98.96
2023-02-11T19:16:51.416Z,98.40
2023-02-11T19:19:19.423Z,99.11
2023-02-11T19:21:47.689Z,98.68
2023-02-11T19:24:18.983Z,98.76
2023-02-11T19:26:47.517Z,99.14
2023-02-11T19:29:14.819Z,99.46
2023-02-11T19:31:42.336Z,99.21
2023-02-11T19:34:11.770Z,99.27
2023-02-11T19:36:38.921Z,98.43
2023-02-11T19:39:06.274Z,98.81
2023-02-11T19:41:34.860Z,99.05
2023-02-11T19:44:02.779Z,99.14
2023-02-11T19:46:33.117Z,99.78
2023-02-11T19:49:01.197Z,100.00
2023-02-11T19:51:29.129Z,100.00
2023-02-11T19:53:56.386Z,100.00
2023-02-11T19:56:23.527Z,100.00
2023-02-11T19:58:50.676Z,100.00
2023-02-11T20:01:20.076Z,100.00
2023-02-11T20:03:52.938Z,100.00
2023-02-11T20:06:23.567Z,100.00
2023-02-11T20:08:58.220Z,100.00
2023-02-11T20:11:27.142Z,100.00
2023-02-11T20:13:54.772Z,100.00
2023-02-11T20:16:33.962Z,100.00
2023-02-11T20:19:16.971Z,100.00
2023-02-11T20:21:46.801Z,100.00
2023-02-11T20:24:15.053Z,100.00
2023-02-11T20:26:42.631Z,100.00
2023-02-11T20:29:09.864Z,100.00
2023-02-11T20:31:37.711Z,100.00
2023-02-11T20:34:04.963Z,100.00
2023-02-11T20:36:35.711Z,100.00
2023-02-11T20:39:05.015Z,100.00
2023-02-11T20:41:36.673Z,100.00
2023-02-11T20:44:07.342Z,100.00
2023-02-11T20:46:37.677Z,100.00
2023-02-11T20:49:06.079Z,100.00
2023-02-11T20:51:36.526Z,100.00
2023-02-11T20:54:06.172Z,100.00
2023-02-11T20:56:36.685Z,100.00
2023-02-11T20:59:04.158Z,100.00
2023-02-11T21:01:37.874Z,100.00
2023-02-11T21:04:07.876Z,100.00
2023-02-11T21:06:38.546Z,100.00
2023-02-11T21:09:07.122Z,100.00
2023-02-11T21:11:34.895Z,100.00
2023-02-11T21:14:02.537Z,100.00
2023-02-11T21:16:29.801Z,100.00
2023-02-11T21:18:58.389Z,100.00
2023-02-11T21:21:25.517Z,100.00
2023-02-11T21:23:52.682Z,100.00
2023-02-11T21:26:22.851Z,100.00
2023-02-11T21:29:04.819Z,100.00
2023-02-11T21:31:46.115Z,100.00
2023-02-11T21:34:48.832Z,100.00
2023-02-11T21:37:23.322Z,100.00
2023-02-11T21:39:50.644Z,100.00
2023-02-11T21:42:17.882Z,100.00
2023-02-11T21:44:45.078Z,100.00
2023-02-11T21:47:12.057Z,100.00
2023-02-11T21:49:39.241Z,100.00
2023-02-11T21:52:06.375Z,100.00
2023-02-11T21:54:56.722Z,100.00
2023-02-11T21:57:44.936Z,100.00
2023-02-11T22:00:53.852Z,100.00
2023-02-11T22:03:54.873Z,100.00
2023-02-11T22:06:42.844Z,100.00
2023-02-11T22:12:31.321Z,100.00
2023-02-11T22:15:38.502Z,100.00
2023-02-11T22:18:25.491Z,100.00
2023-02-11T22:21:31.863Z,100.00
2023-02-11T22:24:37.445Z,100.00
2023-02-11T22:27:44.411Z,100.00
2023-02-11T22:30:38.731Z,100.00
2023-02-11T22:33:29.380Z,100.00
2023-02-11T22:36:21.021Z,100.00
2023-02-11T22:39:46.799Z,100.00
2023-02-11T22:42:35.021Z,100.00
2023-02-11T22:46:07.816Z,100.00
2023-02-11T22:49:01.043Z,100.00
2023-02-11T22:51:48.134Z,100.00
2023-02-11T22:54:28.635Z,100.00
2023-02-11T22:56:55.715Z,100.00
2023-02-11T22:59:23.171Z,100.00
2023-02-11T23:02:07.086Z,100.00
2023-02-11T23:08:14.161Z,100.00
2023-02-11T23:11:18.396Z,100.00
2023-02-11T23:14:17.939Z,100.00
2023-02-11T23:17:05.076Z,100.00
2023-02-11T23:19:32.249Z,100.00
2023-02-11T23:21:59.291Z,100.00
2023-02-11T23:24:35.311Z,100.00
2023-02-11T23:27:05.880Z,100.00
2023-02-11T23:29:47.467Z,100.00
2023-02-11T23:32:42.620Z,100.00
2023-02-11T23:38:33.156Z,100.00
2023-02-11T23:41:26.752Z,100.00
2023-02-11T23:44:29.924Z,100.00
2023-02-11T23:47:27.091Z,100.00
2023-02-11T23:51:08.002Z,100.00
2023-02-11T23:54:12.050Z,100.00
2023-02-11T23:57:03.844Z,100.00
2023-02-11T23:59:55.587Z,100.00
